sensor_id;sensor_type;location;lat;lon;timestamp;temperature;humidity
16964;DHT22;8598;50.508;10.436;2023-02-28T00:00:29;-1.20;99.90
16964;DHT22;8598;50.508;10.436;2023-02-28T00:02:56;-1.20;99.90
16964;DHT22;8598;50.508;10.436;2023-02-28T00:05:24;-1.20;99.90
16964;DHT22;8598;50.508;10.436;2023-02-28T00:07:52;-1.30;99.90
16964;DHT22;8598;50.508;10.436;2023-02-28T00:10:20;-1.40;99.90
16964;DHT22;8598;50.508;10.436;2023-02-28T00:12:48;-1.50;99.90
16964;DHT22;8598;50.508;10.436;2023-02-28T00:15:15;-1.50;99.90
16964;DHT22;8598;50.508;10.436;2023-02-28T00:17:42;-1.50;99.90
16964;DHT22;8598;50.508;10.436;2023-02-28T00:20:11;-1.50;99.90
16964;DHT22;8598;50.508;10.436;2023-02-28T00:22:39;-1.50;99.90
16964;DHT22;8598;50.508;10.436;2023-02-28T00:25:09;-1.50;99.90
16964;DHT22;8598;50.508;10.436;2023-02-28T00:27:36;-1.50;99.90
16964;DHT22;8598;50.508;10.436;2023-02-28T00:30:05;-1.60;99.90
16964;DHT22;8598;50.508;10.436;2023-02-28T00:32:32;-1.60;99.90
16964;DHT22;8598;50.508;10.436;2023-02-28T00:34:59;-1.60;99.90
16964;DHT22;8598;50.508;10.436;2023-02-28T00:37:26;-1.50;99.90
16964;DHT22;8598;50.508;10.436;2023-02-28T00:39:53;-1.90;99.90
16964;DHT22;8598;50.508;10.436;2023-02-28T00:42:20;-1.90;99.90
16964;DHT22;8598;50.508;10.436;2023-02-28T00:44:47;-2.00;99.90
16964;DHT22;8598;50.508;10.436;2023-02-28T00:47:14;-2.00;99.90
16964;DHT22;8598;50.508;10.436;2023-02-28T00:49:41;-1.90;99.90
16964;DHT22;8598;50.508;10.436;2023-02-28T00:52:08;-1.80;99.90
16964;DHT22;8598;50.508;10.436;2023-02-28T00:54:34;-2.20;99.90
16964;DHT22;8598;50.508;10.436;2023-02-28T00:57:01;-1.80;99.90
16964;DHT22;8598;50.508;10.436;2023-02-28T00:59:29;-1.80;99.90
16964;DHT22;8598;50.508;10.436;2023-02-28T01:01:55;-1.80;99.90
16964;DHT22;8598;50.508;10.436;2023-02-28T01:04:22;-1.90;99.90
16964;DHT22;8598;50.508;10.436;2023-02-28T01:06:49;-2.00;99.90
16964;DHT22;8598;50.508;10.436;2023-02-28T01:09:15;-2.10;99.90
16964;DHT22;8598;50.508;10.436;2023-02-28T01:11:42;-2.10;99.90
16964;DHT22;8598;50.508;10.436;2023-02-28T01:14:12;-2.10;99.90
16964;DHT22;8598;50.508;10.436;2023-02-28T01:16:40;-1.90;99.90
16964;DHT22;8598;50.508;10.436;2023-02-28T01:19:07;-1.80;99.90
16964;DHT22;8598;50.508;10.436;2023-02-28T01:21:34;-1.70;99.90
16964;DHT22;8598;50.508;10.436;2023-02-28T01:24:02;-1.70;99.90
16964;DHT22;8598;50.508;10.436;2023-02-28T01:26:29;-1.80;99.90
16964;DHT22;8598;50.508;10.436;2023-02-28T01:28:56;-1.90;99.90
16964;DHT22;8598;50.508;10.436;2023-02-28T01:31:23;-2.00;99.90
16964;DHT22;8598;50.508;10.436;2023-02-28T01:33:51;-2.00;99.90
16964;DHT22;8598;50.508;10.436;2023-02-28T01:36:20;-2.00;99.90
16964;DHT22;8598;50.508;10.436;2023-02-28T01:38:47;-2.00;99.90
16964;DHT22;8598;50.508;10.436;2023-02-28T01:41:16;-2.00;99.90
16964;DHT22;8598;50.508;10.436;2023-02-28T01:43:55;-2.00;99.90
16964;DHT22;8598;50.508;10.436;2023-02-28T01:46:22;-1.80;99.90
16964;DHT22;8598;50.508;10.436;2023-02-28T01:48:54;-1.70;99.90
16964;DHT22;8598;50.508;10.436;2023-02-28T01:51:28;-1.60;99.90
16964;DHT22;8598;50.508;10.436;2023-02-28T01:53:57;-1.60;99.90
16964;DHT22;8598;50.508;10.436;2023-02-28T01:56:28;-1.60;99.90
16964;DHT22;8598;50.508;10.436;2023-02-28T01:58:56;-1.60;99.90
16964;DHT22;8598;50.508;10.436;2023-02-28T02:01:24;-1.50;99.90
16964;DHT22;8598;50.508;10.436;2023-02-28T02:03:55;-1.50;99.90
16964;DHT22;8598;50.508;10.436;2023-02-28T02:06:22;-1.50;99.90
16964;DHT22;8598;50.508;10.436;2023-02-28T02:08:49;-1.50;99.90
16964;DHT22;8598;50.508;10.436;2023-02-28T02:11:18;-1.50;99.90
16964;DHT22;8598;50.508;10.436;2023-02-28T02:14:02;-1.60;99.90
16964;DHT22;8598;50.508;10.436;2023-02-28T02:16:41;-1.50;99.90
16964;DHT22;8598;50.508;10.436;2023-02-28T02:19:30;-1.50;99.90
16964;DHT22;8598;50.508;10.436;2023-02-28T02:22:18;-1.50;99.90
16964;DHT22;8598;50.508;10.436;2023-02-28T02:25:03;-1.50;99.90
16964;DHT22;8598;50.508;10.436;2023-02-28T02:27:45;-1.50;99.90
16964;DHT22;8598;50.508;10.436;2023-02-28T02:30:39;-1.50;99.90
16964;DHT22;8598;50.508;10.436;2023-02-28T02:33:29;-1.40;99.90
16964;DHT22;8598;50.508;10.436;2023-02-28T02:36:07;-1.40;99.90
16964;DHT22;8598;50.508;10.436;2023-02-28T02:38:42;-1.20;99.90
16964;DHT22;8598;50.508;10.436;2023-02-28T02:41:15;-1.20;99.90
16964;DHT22;8598;50.508;10.436;2023-02-28T02:43:47;-1.20;99.90
16964;DHT22;8598;50.508;10.436;2023-02-28T02:46:19;-1.10;99.90
16964;DHT22;8598;50.508;10.436;2023-02-28T02:48:47;-1.10;99.90
16964;DHT22;8598;50.508;10.436;2023-02-28T02:51:17;-1.20;99.90
16964;DHT22;8598;50.508;10.436;2023-02-28T02:53:48;-1.10;99.90
16964;DHT22;8598;50.508;10.436;2023-02-28T02:56:18;-1.10;99.90
16964;DHT22;8598;50.508;10.436;2023-02-28T02:58:47;-1.10;99.90
16964;DHT22;8598;50.508;10.436;2023-02-28T03:01:19;-1.10;99.90
16964;DHT22;8598;50.508;10.436;2023-02-28T03:03:55;-1.10;99.90
16964;DHT22;8598;50.508;10.436;2023-02-28T03:06:23;-1.10;99.90
16964;DHT22;8598;50.508;10.436;2023-02-28T03:08:50;-1.10;99.90
16964;DHT22;8598;50.508;10.436;2023-02-28T03:11:16;-1.10;99.90
16964;DHT22;8598;50.508;10.436;2023-02-28T03:13:57;-1.10;99.90
16964;DHT22;8598;50.508;10.436;2023-02-28T03:16:34;-1.20;99.90
16964;DHT22;8598;50.508;10.436;2023-02-28T03:19:17;-1.20;99.90
16964;DHT22;8598;50.508;10.436;2023-02-28T03:21:53;-1.20;99.90
16964;DHT22;8598;50.508;10.436;2023-02-28T03:24:29;-1.30;99.90
16964;DHT22;8598;50.508;10.436;2023-02-28T03:27:03;-1.20;99.90
16964;DHT22;8598;50.508;10.436;2023-02-28T03:29:34;-1.20;99.90
16964;DHT22;8598;50.508;10.436;2023-02-28T03:32:05;-1.30;99.90
16964;DHT22;8598;50.508;10.436;2023-02-28T03:34:42;-1.20;99.90
16964;DHT22;8598;50.508;10.436;2023-02-28T03:37:16;-1.30;99.90
16964;DHT22;8598;50.508;10.436;2023-02-28T03:39:46;-1.30;99.90
16964;DHT22;8598;50.508;10.436;2023-02-28T03:42:17;-1.40;99.90
16964;DHT22;8598;50.508;10.436;2023-02-28T03:44:48;-1.30;99.90
16964;DHT22;8598;50.508;10.436;2023-02-28T03:47:19;-1.40;99.90
16964;DHT22;8598;50.508;10.436;2023-02-28T03:49:50;-1.40;99.90
16964;DHT22;8598;50.508;10.436;2023-02-28T03:52:23;-1.50;99.90
16964;DHT22;8598;50.508;10.436;2023-02-28T03:54:55;-1.60;99.90
16964;DHT22;8598;50.508;10.436;2023-02-28T03:57:26;-1.60;99.90
16964;DHT22;8598;50.508;10.436;2023-02-28T03:59:59;-1.70;99.90
16964;DHT22;8598;50.508;10.436;2023-02-28T04:02:26;-1.60;99.90
16964;DHT22;8598;50.508;10.436;2023-02-28T04:04:53;-1.70;99.90
16964;DHT22;8598;50.508;10.436;2023-02-28T04:07:21;-1.70;99.90
16964;DHT22;8598;50.508;10.436;2023-02-28T04:09:48;-1.80;99.90
16964;DHT22;8598;50.508;10.436;2023-02-28T04:12:15;-1.80;99.90
16964;DHT22;8598;50.508;10.436;2023-02-28T04:14:41;-1.80;99.90
16964;DHT22;8598;50.508;10.436;2023-02-28T04:17:08;-1.70;99.90
16964;DHT22;8598;50.508;10.436;2023-02-28T04:19:34;-1.70;99.90
16964;DHT22;8598;50.508;10.436;2023-02-28T04:22:01;-1.70;99.90
16964;DHT22;8598;50.508;10.436;2023-02-28T04:24:29;-1.70;99.90
16964;DHT22;8598;50.508;10.436;2023-02-28T04:26:57;-1.70;99.90
16964;DHT22;8598;50.508;10.436;2023-02-28T04:29:25;-1.80;99.90
16964;DHT22;8598;50.508;10.436;2023-02-28T04:31:53;-1.90;99.90
16964;DHT22;8598;50.508;10.436;2023-02-28T04:34:20;-1.90;99.90
16964;DHT22;8598;50.508;10.436;2023-02-28T04:36:47;-1.90;99.90
16964;DHT22;8598;50.508;10.436;2023-02-28T04:39:16;-1.90;99.90
16964;DHT22;8598;50.508;10.436;2023-02-28T04:41:45;-1.90;99.90
16964;DHT22;8598;50.508;10.436;2023-02-28T04:44:12;-1.90;99.90
16964;DHT22;8598;50.508;10.436;2023-02-28T04:46:39;-1.90;99.90
16964;DHT22;8598;50.508;10.436;2023-02-28T04:49:06;-2.00;99.90
16964;DHT22;8598;50.508;10.436;2023-02-28T04:51:33;-1.90;99.90
16964;DHT22;8598;50.508;10.436;2023-02-28T04:53:59;-2.00;99.90
16964;DHT22;8598;50.508;10.436;2023-02-28T04:56:26;-2.00;99.90
16964;DHT22;8598;50.508;10.436;2023-02-28T04:58:54;-2.00;99.90
16964;DHT22;8598;50.508;10.436;2023-02-28T05:01:23;-2.10;99.90
16964;DHT22;8598;50.508;10.436;2023-02-28T05:03:52;-2.10;99.90
16964;DHT22;8598;50.508;10.436;2023-02-28T05:06:20;-2.10;99.90
16964;DHT22;8598;50.508;10.436;2023-02-28T05:08:47;-2.20;99.90
16964;DHT22;8598;50.508;10.436;2023-02-28T05:11:17;-2.20;99.90
16964;DHT22;8598;50.508;10.436;2023-02-28T05:13:44;-2.30;99.90
16964;DHT22;8598;50.508;10.436;2023-02-28T05:16:13;-1.70;99.90
16964;DHT22;8598;50.508;10.436;2023-02-28T05:18:40;-2.30;99.90
16964;DHT22;8598;50.508;10.436;2023-02-28T05:21:23;-2.40;99.90
16964;DHT22;8598;50.508;10.436;2023-02-28T05:23:50;-2.30;99.90
16964;DHT22;8598;50.508;10.436;2023-02-28T05:26:17;-2.30;99.90
16964;DHT22;8598;50.508;10.436;2023-02-28T05:28:43;-2.30;99.90
16964;DHT22;8598;50.508;10.436;2023-02-28T05:31:11;-2.40;99.90
16964;DHT22;8598;50.508;10.436;2023-02-28T05:33:39;-2.50;99.90
16964;DHT22;8598;50.508;10.436;2023-02-28T05:36:06;-2.60;99.90
16964;DHT22;8598;50.508;10.436;2023-02-28T05:38:33;-2.60;99.90
16964;DHT22;8598;50.508;10.436;2023-02-28T05:41:00;-2.60;99.90
16964;DHT22;8598;50.508;10.436;2023-02-28T05:43:26;-2.70;99.90
16964;DHT22;8598;50.508;10.436;2023-02-28T05:45:53;-2.70;99.90
16964;DHT22;8598;50.508;10.436;2023-02-28T05:48:19;-2.70;99.90
16964;DHT22;8598;50.508;10.436;2023-02-28T05:50:47;-2.80;99.90
16964;DHT22;8598;50.508;10.436;2023-02-28T05:53:14;-2.70;99.90
16964;DHT22;8598;50.508;10.436;2023-02-28T05:55:41;-2.60;99.90
16964;DHT22;8598;50.508;10.436;2023-02-28T05:58:07;-2.60;99.90
16964;DHT22;8598;50.508;10.436;2023-02-28T06:00:34;-2.70;99.90
16964;DHT22;8598;50.508;10.436;2023-02-28T06:03:01;-2.80;99.90
16964;DHT22;8598;50.508;10.436;2023-02-28T06:05:27;-2.70;99.90
16964;DHT22;8598;50.508;10.436;2023-02-28T06:07:55;-2.80;99.90
16964;DHT22;8598;50.508;10.436;2023-02-28T06:10:22;-2.60;99.90
16964;DHT22;8598;50.508;10.436;2023-02-28T06:12:49;-2.70;99.90
16964;DHT22;8598;50.508;10.436;2023-02-28T06:15:16;-2.80;99.90
16964;DHT22;8598;50.508;10.436;2023-02-28T06:17:43;-2.90;99.90
16964;DHT22;8598;50.508;10.436;2023-02-28T06:20:11;-2.90;99.90
16964;DHT22;8598;50.508;10.436;2023-02-28T06:22:38;-3.00;99.90
16964;DHT22;8598;50.508;10.436;2023-02-28T06:25:07;-3.00;99.90
16964;DHT22;8598;50.508;10.436;2023-02-28T06:27:34;-3.00;99.90
16964;DHT22;8598;50.508;10.436;2023-02-28T06:30:02;-2.90;99.90
16964;DHT22;8598;50.508;10.436;2023-02-28T06:32:28;-2.70;99.90
16964;DHT22;8598;50.508;10.436;2023-02-28T06:34:55;-2.50;99.90
16964;DHT22;8598;50.508;10.436;2023-02-28T06:37:23;-2.20;99.90
16964;DHT22;8598;50.508;10.436;2023-02-28T06:39:51;-2.10;99.90
16964;DHT22;8598;50.508;10.436;2023-02-28T06:42:19;-2.10;99.90
16964;DHT22;8598;50.508;10.436;2023-02-28T06:44:47;-2.20;99.90
16964;DHT22;8598;50.508;10.436;2023-02-28T06:47:13;-2.10;99.90
16964;DHT22;8598;50.508;10.436;2023-02-28T06:49:40;-2.10;99.90
16964;DHT22;8598;50.508;10.436;2023-02-28T06:52:06;-2.10;99.90
16964;DHT22;8598;50.508;10.436;2023-02-28T06:54:34;-2.10;99.90
16964;DHT22;8598;50.508;10.436;2023-02-28T06:57:00;-1.90;99.90
16964;DHT22;8598;50.508;10.436;2023-02-28T06:59:28;-1.90;99.90
16964;DHT22;8598;50.508;10.436;2023-02-28T07:01:55;-1.60;99.90
16964;DHT22;8598;50.508;10.436;2023-02-28T07:04:22;-1.40;99.90
16964;DHT22;8598;50.508;10.436;2023-02-28T07:06:48;-1.30;99.90
16964;DHT22;8598;50.508;10.436;2023-02-28T07:09:15;-1.20;99.90
16964;DHT22;8598;50.508;10.436;2023-02-28T07:11:42;-1.20;99.90
16964;DHT22;8598;50.508;10.436;2023-02-28T07:14:09;-1.00;99.90
16964;DHT22;8598;50.508;10.436;2023-02-28T07:16:36;-0.90;99.90
16964;DHT22;8598;50.508;10.436;2023-02-28T07:19:03;-0.80;99.90
16964;DHT22;8598;50.508;10.436;2023-02-28T07:21:30;-0.40;99.90
16964;DHT22;8598;50.508;10.436;2023-02-28T07:23:56;0.10;99.90
16964;DHT22;8598;50.508;10.436;2023-02-28T07:26:23;0.20;99.90
16964;DHT22;8598;50.508;10.436;2023-02-28T07:28:50;0.20;99.90
16964;DHT22;8598;50.508;10.436;2023-02-28T07:31:17;0.40;99.90
16964;DHT22;8598;50.508;10.436;2023-02-28T07:33:45;0.30;99.90
16964;DHT22;8598;50.508;10.436;2023-02-28T07:36:14;0.50;99.90
16964;DHT22;8598;50.508;10.436;2023-02-28T07:38:43;1.00;99.90
16964;DHT22;8598;50.508;10.436;2023-02-28T07:41:10;1.10;99.90
16964;DHT22;8598;50.508;10.436;2023-02-28T07:43:36;1.60;99.90
16964;DHT22;8598;50.508;10.436;2023-02-28T07:46:04;0.90;99.90
16964;DHT22;8598;50.508;10.436;2023-02-28T07:48:31;1.20;99.90
16964;DHT22;8598;50.508;10.436;2023-02-28T07:50:59;1.30;99.90
16964;DHT22;8598;50.508;10.436;2023-02-28T07:53:26;1.60;99.90
16964;DHT22;8598;50.508;10.436;2023-02-28T07:55:55;1.90;99.90
16964;DHT22;8598;50.508;10.436;2023-02-28T07:58:22;2.20;99.90
16964;DHT22;8598;50.508;10.436;2023-02-28T08:00:49;2.50;99.90
16964;DHT22;8598;50.508;10.436;2023-02-28T08:03:17;2.20;99.90
16964;DHT22;8598;50.508;10.436;2023-02-28T08:05:44;2.10;99.90
16964;DHT22;8598;50.508;10.436;2023-02-28T08:08:12;2.20;99.90
16964;DHT22;8598;50.508;10.436;2023-02-28T08:10:38;1.80;99.90
16964;DHT22;8598;50.508;10.436;2023-02-28T08:13:05;1.70;99.90
16964;DHT22;8598;50.508;10.436;2023-02-28T08:15:32;1.40;99.90
16964;DHT22;8598;50.508;10.436;2023-02-28T08:17:58;1.50;99.90
16964;DHT22;8598;50.508;10.436;2023-02-28T08:20:26;1.70;99.90
16964;DHT22;8598;50.508;10.436;2023-02-28T08:22:52;1.90;99.90
16964;DHT22;8598;50.508;10.436;2023-02-28T08:25:21;1.90;99.90
16964;DHT22;8598;50.508;10.436;2023-02-28T08:27:47;1.60;99.90
16964;DHT22;8598;50.508;10.436;2023-02-28T08:30:16;1.50;99.90
16964;DHT22;8598;50.508;10.436;2023-02-28T08:32:43;1.40;99.90
16964;DHT22;8598;50.508;10.436;2023-02-28T08:35:10;1.10;99.90
16964;DHT22;8598;50.508;10.436;2023-02-28T08:37:37;1.20;99.90
16964;DHT22;8598;50.508;10.436;2023-02-28T08:40:04;1.30;99.90
16964;DHT22;8598;50.508;10.436;2023-02-28T08:42:33;1.60;99.90
16964;DHT22;8598;50.508;10.436;2023-02-28T08:44:59;2.00;99.90
16964;DHT22;8598;50.508;10.436;2023-02-28T08:47:26;2.20;99.90
16964;DHT22;8598;50.508;10.436;2023-02-28T08:49:53;2.40;99.90
16964;DHT22;8598;50.508;10.436;2023-02-28T08:52:19;2.50;99.90
16964;DHT22;8598;50.508;10.436;2023-02-28T08:54:46;2.60;99.90
16964;DHT22;8598;50.508;10.436;2023-02-28T08:57:13;2.40;99.90
16964;DHT22;8598;50.508;10.436;2023-02-28T08:59:41;2.40;99.90
16964;DHT22;8598;50.508;10.436;2023-02-28T09:02:09;2.50;99.90
16964;DHT22;8598;50.508;10.436;2023-02-28T09:04:36;2.40;99.90
16964;DHT22;8598;50.508;10.436;2023-02-28T09:07:03;2.30;99.90
16964;DHT22;8598;50.508;10.436;2023-02-28T09:09:29;2.20;99.90
16964;DHT22;8598;50.508;10.436;2023-02-28T09:11:56;2.20;99.90
16964;DHT22;8598;50.508;10.436;2023-02-28T09:14:23;2.10;99.90
16964;DHT22;8598;50.508;10.436;2023-02-28T09:16:51;2.10;99.90
16964;DHT22;8598;50.508;10.436;2023-02-28T09:19:17;2.00;99.90
16964;DHT22;8598;50.508;10.436;2023-02-28T09:21:44;1.90;99.90
16964;DHT22;8598;50.508;10.436;2023-02-28T09:24:10;2.00;99.90
16964;DHT22;8598;50.508;10.436;2023-02-28T09:26:39;1.80;99.90
16964;DHT22;8598;50.508;10.436;2023-02-28T09:29:06;1.80;99.90
16964;DHT22;8598;50.508;10.436;2023-02-28T09:31:33;2.00;99.90
16964;DHT22;8598;50.508;10.436;2023-02-28T09:34:01;2.40;99.90
16964;DHT22;8598;50.508;10.436;2023-02-28T09:36:28;2.80;99.90
16964;DHT22;8598;50.508;10.436;2023-02-28T09:38:55;2.80;99.90
16964;DHT22;8598;50.508;10.436;2023-02-28T09:41:24;3.00;99.90
16964;DHT22;8598;50.508;10.436;2023-02-28T09:43:56;3.20;99.90
16964;DHT22;8598;50.508;10.436;2023-02-28T09:46:31;3.30;99.90
16964;DHT22;8598;50.508;10.436;2023-02-28T09:49:02;3.50;99.90
16964;DHT22;8598;50.508;10.436;2023-02-28T09:51:37;3.00;99.90
16964;DHT22;8598;50.508;10.436;2023-02-28T09:54:10;2.50;99.90
16964;DHT22;8598;50.508;10.436;2023-02-28T09:56:40;2.30;99.90
16964;DHT22;8598;50.508;10.436;2023-02-28T09:59:15;2.50;99.90
16964;DHT22;8598;50.508;10.436;2023-02-28T10:01:51;2.30;99.90
16964;DHT22;8598;50.508;10.436;2023-02-28T10:04:33;2.30;99.90
16964;DHT22;8598;50.508;10.436;2023-02-28T10:07:04;2.40;99.90
16964;DHT22;8598;50.508;10.436;2023-02-28T10:09:33;2.60;99.90
16964;DHT22;8598;50.508;10.436;2023-02-28T10:12:05;2.50;99.90
16964;DHT22;8598;50.508;10.436;2023-02-28T10:14:33;2.50;99.90
16964;DHT22;8598;50.508;10.436;2023-02-28T10:17:03;2.40;99.90
16964;DHT22;8598;50.508;10.436;2023-02-28T10:19:34;2.50;99.90
16964;DHT22;8598;50.508;10.436;2023-02-28T10:22:09;2.40;99.90
16964;DHT22;8598;50.508;10.436;2023-02-28T10:24:40;2.40;99.90
16964;DHT22;8598;50.508;10.436;2023-02-28T10:27:14;2.60;99.90
16964;DHT22;8598;50.508;10.436;2023-02-28T10:29:43;2.40;99.90
16964;DHT22;8598;50.508;10.436;2023-02-28T10:32:15;2.30;99.90
16964;DHT22;8598;50.508;10.436;2023-02-28T10:34:44;2.40;99.90
16964;DHT22;8598;50.508;10.436;2023-02-28T10:37:11;2.40;99.90
16964;DHT22;8598;50.508;10.436;2023-02-28T10:39:41;2.40;99.90
16964;DHT22;8598;50.508;10.436;2023-02-28T10:42:23;2.40;99.90
16964;DHT22;8598;50.508;10.436;2023-02-28T10:45:06;2.60;99.90
16964;DHT22;8598;50.508;10.436;2023-02-28T10:47:34;2.60;99.90
16964;DHT22;8598;50.508;10.436;2023-02-28T10:50:05;2.60;99.90
16964;DHT22;8598;50.508;10.436;2023-02-28T10:52:37;2.80;99.90
16964;DHT22;8598;50.508;10.436;2023-02-28T10:55:16;3.10;99.90
16964;DHT22;8598;50.508;10.436;2023-02-28T10:57:46;3.10;99.90
16964;DHT22;8598;50.508;10.436;2023-02-28T11:00:16;2.80;99.90
16964;DHT22;8598;50.508;10.436;2023-02-28T11:02:44;2.90;99.90
16964;DHT22;8598;50.508;10.436;2023-02-28T11:05:27;2.90;99.90
16964;DHT22;8598;50.508;10.436;2023-02-28T11:07:56;2.90;99.90
16964;DHT22;8598;50.508;10.436;2023-02-28T11:10:26;3.00;99.90
16964;DHT22;8598;50.508;10.436;2023-02-28T11:12:55;2.90;99.90
16964;DHT22;8598;50.508;10.436;2023-02-28T11:15:24;3.20;99.90
16964;DHT22;8598;50.508;10.436;2023-02-28T11:17:56;3.50;99.90
16964;DHT22;8598;50.508;10.436;2023-02-28T11:20:27;3.80;99.90
16964;DHT22;8598;50.508;10.436;2023-02-28T11:22:56;3.80;99.90
16964;DHT22;8598;50.508;10.436;2023-02-28T11:25:25;3.30;99.90
16964;DHT22;8598;50.508;10.436;2023-02-28T11:27:54;3.00;99.90
16964;DHT22;8598;50.508;10.436;2023-02-28T11:30:40;2.70;99.90
16964;DHT22;8598;50.508;10.436;2023-02-28T11:33:22;2.90;99.90
16964;DHT22;8598;50.508;10.436;2023-02-28T11:35:51;2.80;99.90
16964;DHT22;8598;50.508;10.436;2023-02-28T11:38:18;2.70;99.90
16964;DHT22;8598;50.508;10.436;2023-02-28T11:40:51;2.40;99.90
16964;DHT22;8598;50.508;10.436;2023-02-28T11:43:33;2.30;99.90
16964;DHT22;8598;50.508;10.436;2023-02-28T11:46:16;2.30;99.90
16964;DHT22;8598;50.508;10.436;2023-02-28T11:48:51;2.30;99.90
16964;DHT22;8598;50.508;10.436;2023-02-28T11:51:26;2.40;99.90
16964;DHT22;8598;50.508;10.436;2023-02-28T11:54:11;2.60;99.90
16964;DHT22;8598;50.508;10.436;2023-02-28T11:56:42;2.60;99.90
16964;DHT22;8598;50.508;10.436;2023-02-28T11:59:38;2.60;99.90
16964;DHT22;8598;50.508;10.436;2023-02-28T12:02:23;2.50;99.90
16964;DHT22;8598;50.508;10.436;2023-02-28T12:05:01;2.60;99.90
16964;DHT22;8598;50.508;10.436;2023-02-28T12:07:44;2.80;99.90
16964;DHT22;8598;50.508;10.436;2023-02-28T12:10:21;3.00;99.90
16964;DHT22;8598;50.508;10.436;2023-02-28T12:12:57;3.00;99.90
16964;DHT22;8598;50.508;10.436;2023-02-28T12:15:42;2.90;99.90
16964;DHT22;8598;50.508;10.436;2023-02-28T12:18:24;3.00;99.90
16964;DHT22;8598;50.508;10.436;2023-02-28T12:20:59;3.10;99.90
16964;DHT22;8598;50.508;10.436;2023-02-28T12:23:50;3.20;99.90
16964;DHT22;8598;50.508;10.436;2023-02-28T12:26:23;3.20;99.90
16964;DHT22;8598;50.508;10.436;2023-02-28T12:29:00;3.40;99.90
16964;DHT22;8598;50.508;10.436;2023-02-28T12:31:30;3.50;99.90
16964;DHT22;8598;50.508;10.436;2023-02-28T12:34:04;3.50;99.90
16964;DHT22;8598;50.508;10.436;2023-02-28T12:36:34;3.30;99.90
16964;DHT22;8598;50.508;10.436;2023-02-28T12:39:08;3.20;99.90
16964;DHT22;8598;50.508;10.436;2023-02-28T12:41:40;3.30;99.90
16964;DHT22;8598;50.508;10.436;2023-02-28T12:44:11;3.40;99.90
16964;DHT22;8598;50.508;10.436;2023-02-28T12:46:41;3.30;99.90
16964;DHT22;8598;50.508;10.436;2023-02-28T12:49:12;3.40;99.90
16964;DHT22;8598;50.508;10.436;2023-02-28T12:51:41;3.40;99.90
16964;DHT22;8598;50.508;10.436;2023-02-28T12:54:15;3.40;99.90
16964;DHT22;8598;50.508;10.436;2023-02-28T12:56:49;3.50;99.90
16964;DHT22;8598;50.508;10.436;2023-02-28T12:59:24;3.60;99.90
16964;DHT22;8598;50.508;10.436;2023-02-28T13:08:13;3.60;99.90
16964;DHT22;8598;50.508;10.436;2023-02-28T13:10:47;3.60;99.90
16964;DHT22;8598;50.508;10.436;2023-02-28T13:13:17;3.60;99.90
16964;DHT22;8598;50.508;10.436;2023-02-28T13:16:02;3.80;99.90
16964;DHT22;8598;50.508;10.436;2023-02-28T13:18:32;4.00;99.90
16964;DHT22;8598;50.508;10.436;2023-02-28T13:21:01;4.00;99.90
16964;DHT22;8598;50.508;10.436;2023-02-28T13:29:31;3.90;99.90
16964;DHT22;8598;50.508;10.436;2023-02-28T13:35:36;4.10;99.90
16964;DHT22;8598;50.508;10.436;2023-02-28T13:38:17;4.30;99.90
16964;DHT22;8598;50.508;10.436;2023-02-28T13:40:47;4.30;99.90
16964;DHT22;8598;50.508;10.436;2023-02-28T13:43:17;4.30;99.90
16964;DHT22;8598;50.508;10.436;2023-02-28T13:46:07;4.20;99.90
16964;DHT22;8598;50.508;10.436;2023-02-28T13:48:34;4.30;99.90
16964;DHT22;8598;50.508;10.436;2023-02-28T13:51:27;4.30;99.90
16964;DHT22;8598;50.508;10.436;2023-02-28T13:54:00;4.40;99.90
16964;DHT22;8598;50.508;10.436;2023-02-28T13:56:36;4.40;99.90
16964;DHT22;8598;50.508;10.436;2023-02-28T13:59:19;4.50;99.90
16964;DHT22;8598;50.508;10.436;2023-02-28T14:02:17;4.50;99.90
16964;DHT22;8598;50.508;10.436;2023-02-28T14:04:59;4.30;99.90
16964;DHT22;8598;50.508;10.436;2023-02-28T14:07:29;4.40;99.90
16964;DHT22;8598;50.508;10.436;2023-02-28T14:10:01;4.30;99.90
16964;DHT22;8598;50.508;10.436;2023-02-28T14:12:51;4.30;99.90
16964;DHT22;8598;50.508;10.436;2023-02-28T14:15:44;4.30;99.90
16964;DHT22;8598;50.508;10.436;2023-02-28T14:18:23;4.30;99.90
16964;DHT22;8598;50.508;10.436;2023-02-28T14:20:54;4.30;99.90
16964;DHT22;8598;50.508;10.436;2023-02-28T14:23:56;4.20;99.90
16964;DHT22;8598;50.508;10.436;2023-02-28T14:29:55;4.20;99.90
16964;DHT22;8598;50.508;10.436;2023-02-28T14:32:28;4.30;99.90
16964;DHT22;8598;50.508;10.436;2023-02-28T14:35:05;4.30;99.90
16964;DHT22;8598;50.508;10.436;2023-02-28T14:37:39;4.30;99.90
16964;DHT22;8598;50.508;10.436;2023-02-28T14:40:12;4.20;99.90
16964;DHT22;8598;50.508;10.436;2023-02-28T14:42:47;4.30;99.90
16964;DHT22;8598;50.508;10.436;2023-02-28T14:45:18;4.20;99.90
16964;DHT22;8598;50.508;10.436;2023-02-28T14:47:45;4.20;99.90
16964;DHT22;8598;50.508;10.436;2023-02-28T14:50:19;4.20;99.90
16964;DHT22;8598;50.508;10.436;2023-02-28T14:52:46;4.10;99.90
16964;DHT22;8598;50.508;10.436;2023-02-28T14:55:15;4.10;99.90
16964;DHT22;8598;50.508;10.436;2023-02-28T14:57:51;4.10;99.90
16964;DHT22;8598;50.508;10.436;2023-02-28T15:00:22;4.00;99.90
16964;DHT22;8598;50.508;10.436;2023-02-28T15:02:49;3.90;99.90
16964;DHT22;8598;50.508;10.436;2023-02-28T15:05:26;4.00;99.90
16964;DHT22;8598;50.508;10.436;2023-02-28T15:08:11;3.90;99.90
16964;DHT22;8598;50.508;10.436;2023-02-28T15:10:39;3.90;99.90
16964;DHT22;8598;50.508;10.436;2023-02-28T15:13:11;3.80;99.90
16964;DHT22;8598;50.508;10.436;2023-02-28T15:15:45;3.90;99.90
16964;DHT22;8598;50.508;10.436;2023-02-28T15:18:18;3.90;99.90
16964;DHT22;8598;50.508;10.436;2023-02-28T15:20:50;3.90;99.90
16964;DHT22;8598;50.508;10.436;2023-02-28T15:23:17;3.70;99.90
16964;DHT22;8598;50.508;10.436;2023-02-28T15:25:45;3.70;99.90
16964;DHT22;8598;50.508;10.436;2023-02-28T15:28:15;3.60;99.90
16964;DHT22;8598;50.508;10.436;2023-02-28T15:30:52;3.60;99.90
16964;DHT22;8598;50.508;10.436;2023-02-28T15:33:21;3.50;99.90
16964;DHT22;8598;50.508;10.436;2023-02-28T15:35:50;3.40;99.90
16964;DHT22;8598;50.508;10.436;2023-02-28T15:38:21;3.30;99.90
16964;DHT22;8598;50.508;10.436;2023-02-28T15:40:51;3.30;99.90
16964;DHT22;8598;50.508;10.436;2023-02-28T15:43:27;3.30;99.90
16964;DHT22;8598;50.508;10.436;2023-02-28T15:45:57;3.30;99.90
16964;DHT22;8598;50.508;10.436;2023-02-28T15:48:27;3.10;99.90
16964;DHT22;8598;50.508;10.436;2023-02-28T15:50:58;3.00;99.90
16964;DHT22;8598;50.508;10.436;2023-02-28T15:53:32;2.90;99.90
16964;DHT22;8598;50.508;10.436;2023-02-28T15:56:01;2.90;99.90
16964;DHT22;8598;50.508;10.436;2023-02-28T15:58:29;2.80;99.90
16964;DHT22;8598;50.508;10.436;2023-02-28T16:01:16;2.80;99.90
16964;DHT22;8598;50.508;10.436;2023-02-28T16:03:46;2.70;99.90
16964;DHT22;8598;50.508;10.436;2023-02-28T16:06:39;2.60;99.90
16964;DHT22;8598;50.508;10.436;2023-02-28T16:09:10;2.50;99.90
16964;DHT22;8598;50.508;10.436;2023-02-28T16:11:39;2.50;99.90
16964;DHT22;8598;50.508;10.436;2023-02-28T16:14:11;2.40;99.90
16964;DHT22;8598;50.508;10.436;2023-02-28T16:16:43;2.30;99.90
16964;DHT22;8598;50.508;10.436;2023-02-28T16:19:10;2.20;99.90
16964;DHT22;8598;50.508;10.436;2023-02-28T16:21:38;2.30;99.90